Time,TemperatureF,DewpointF,PressureIn,WindDirection,WindDirectionDegrees,WindSpeedMPH,WindSpeedGustMPH,Humidity,HourlyPrecipIn,Conditions,Clouds,dailyrainin,SolarRadiationWatts/m^2,SoftwareType,DateUTC
2013-07-06 00:00:00,65.0,61.0,-100.00,South,180,0.0,-999.0,88,-99.99,,,-99.99,0.000000,,2013-07-06 04:00:00,
2013-07-06 00:43:00,65.0,61.0,-100.00,South,180,0.0,-999.0,88,-99.99,,,-99.99,0.000000,,2013-07-06 04:43:00,
2013-07-06 00:53:00,65.0,61.0,-100.00,South,180,0.0,-999.0,88,-99.99,,,-99.99,0.000000,,2013-07-06 04:53:00,
2013-07-06 01:00:00,66.0,60.0,-100.00,South,180,1.0,-999.0,83,-99.99,,,-99.99,0.000000,,2013-07-06 05:00:00,
2013-07-06 01:34:00,66.0,60.0,-100.00,South,180,1.0,-999.0,83,-99.99,,,-99.99,0.000000,,2013-07-06 05:34:00,
2013-07-06 01:43:00,66.0,60.0,-100.00,South,180,1.0,-999.0,83,-99.99,,,-99.99,0.000000,,2013-07-06 05:43:00,
2013-07-06 01:53:00,66.0,60.0,-100.00,South,180,1.0,-999.0,83,-99.99,,,-99.99,0.000000,,2013-07-06 05:53:00,
2013-07-06 02:00:00,67.0,60.0,-100.00,SSW,202,1.0,-999.0,79,-99.99,,,-99.99,0.000000,,2013-07-06 06:00:00,
2013-07-06 02:43:00,67.0,60.0,-100.00,SSW,202,1.0,-999.0,79,-99.99,,,-99.99,0.000000,,2013-07-06 06:43:00,
2013-07-06 02:53:00,67.0,60.0,-100.00,SSW,202,1.0,-999.0,79,-99.99,,,-99.99,0.000000,,2013-07-06 06:53:00,
2013-07-06 03:00:00,67.0,60.0,-100.00,SSW,202,2.0,-999.0,78,-99.99,,,-99.99,0.000000,,2013-07-06 07:00:00,
2013-07-06 03:44:00,67.0,60.0,-100.00,SSW,202,2.0,-999.0,78,-99.99,,,-99.99,0.000000,,2013-07-06 07:44:00,
2013-07-06 03:52:00,67.0,60.0,-100.00,SSW,202,2.0,-999.0,78,-99.99,,,-99.99,0.000000,,2013-07-06 07:52:00,
2013-07-06 04:00:00,67.0,61.0,-100.00,SSW,202,2.0,-999.0,80,-99.99,,,-99.99,0.000000,,2013-07-06 08:00:00,
2013-07-06 04:43:00,67.0,61.0,-100.00,SSW,202,2.0,-999.0,80,-99.99,,,-99.99,0.000000,,2013-07-06 08:43:00,
2013-07-06 04:54:00,67.0,61.0,-100.00,SSW,202,2.0,-999.0,80,-99.99,,,-99.99,0.000000,,2013-07-06 08:54:00,
2013-07-06 05:00:00,67.0,62.0,-100.00,SSW,202,1.0,-999.0,83,-99.99,,,-99.99,0.000000,,2013-07-06 09:00:00,
2013-07-06 05:43:00,67.0,62.0,-100.00,SSW,202,1.0,-999.0,83,-99.99,,,-99.99,0.000000,,2013-07-06 09:43:00,
2013-07-06 05:53:00,67.0,62.0,-100.00,SSW,202,1.0,-999.0,83,-99.99,,,-99.99,0.000000,,2013-07-06 09:53:00,
2013-07-06 06:00:00,65.0,62.0,-100.00,SSW,202,0.0,-999.0,89,-99.99,,,-99.99,0.000000,,2013-07-06 10:00:00,
2013-07-06 06:43:00,65.0,62.0,-100.00,SSW,202,0.0,-999.0,89,-99.99,,,-99.99,0.000000,,2013-07-06 10:43:00,
2013-07-06 06:53:00,65.0,62.0,-100.00,SSW,202,0.0,-999.0,89,-99.99,,,-99.99,0.000000,,2013-07-06 10:53:00,
2013-07-06 07:00:00,66.0,63.0,-100.00,SSW,202,3.0,-999.0,90,-99.99,,,-99.99,27.840000,,2013-07-06 11:00:00,
2013-07-06 07:43:00,66.0,63.0,-100.00,SSW,202,3.0,-999.0,90,-99.99,,,-99.99,27.840000,,2013-07-06 11:43:00,
2013-07-06 07:53:00,66.0,63.0,-100.00,SSW,202,3.0,-999.0,90,-99.99,,,-99.99,27.840000,,2013-07-06 11:53:00,
2013-07-06 08:00:00,69.0,64.0,-100.00,SSW,202,3.0,-999.0,85,-99.99,,,-99.99,132.240005,,2013-07-06 12:00:00,
2013-07-06 08:43:00,69.0,64.0,-100.00,SSW,202,3.0,-999.0,85,-99.99,,,-99.99,132.240005,,2013-07-06 12:43:00,
2013-07-06 08:52:00,69.0,64.0,-100.00,SSW,202,3.0,-999.0,85,-99.99,,,-99.99,132.240005,,2013-07-06 12:52:00,
2013-07-06 09:00:00,72.0,65.0,-100.00,SW,225,4.0,-999.0,78,-99.99,,,-99.99,243.600006,,2013-07-06 13:00:00,
2013-07-06 09:43:00,72.0,65.0,-100.00,SW,225,4.0,-999.0,78,-99.99,,,-99.99,243.600006,,2013-07-06 13:43:00,
2013-07-06 09:52:00,72.0,65.0,-100.00,SW,225,4.0,-999.0,78,-99.99,,,-99.99,243.600006,,2013-07-06 13:52:00,
2013-07-06 10:00:00,76.0,65.0,-100.00,WSW,247,3.0,-999.0,69,-99.99,,,-99.99,467.480011,,2013-07-06 14:00:00,
2013-07-06 10:34:00,76.0,65.0,-100.00,WSW,247,3.0,-999.0,69,-99.99,,,-99.99,467.480011,,2013-07-06 14:34:00,
2013-07-06 10:42:00,76.0,65.0,-100.00,WSW,247,3.0,-999.0,69,-99.99,,,-99.99,467.480011,,2013-07-06 14:42:00,
2013-07-06 10:53:00,76.0,65.0,-100.00,WSW,247,3.0,-999.0,69,-99.99,,,-99.99,467.480011,,2013-07-06 14:53:00,
2013-07-06 11:00:00,79.0,65.0,-100.00,SW,225,4.0,-999.0,62,-99.99,,,-99.99,629.880005,,2013-07-06 15:00:00,
2013-07-06 11:43:00,79.0,65.0,-100.00,SW,225,4.0,-999.0,62,-99.99,,,-99.99,629.880005,,2013-07-06 15:43:00,
2013-07-06 11:53:00,79.0,65.0,-100.00,SW,225,4.0,-999.0,62,-99.99,,,-99.99,629.880005,,2013-07-06 15:53:00,
2013-07-06 12:00:00,79.0,64.0,-100.00,SW,225,4.0,-999.0,58,-99.99,,,-99.99,683.239990,,2013-07-06 16:00:00,
2013-07-06 13:00:00,81.0,63.0,-100.00,SW,225,4.0,-999.0,54,-99.99,,,-99.99,808.520020,,2013-07-06 17:00:00,
2013-07-06 14:00:00,82.0,63.0,-100.00,South,180,4.0,-999.0,51,-99.99,,,-99.99,854.919983,,2013-07-06 18:00:00,
2013-07-06 15:00:00,83.0,62.0,-100.00,SSE,157,4.0,-999.0,48,-99.99,,,-99.99,798.080017,,2013-07-06 19:00:00,
2013-07-06 15:59:00,83.0,62.0,-100.00,SSE,157,4.0,-999.0,48,-99.99,,,-99.99,798.080017,,2013-07-06 19:59:00,
2013-07-06 16:00:00,83.0,62.0,-100.00,South,180,4.0,-999.0,49,-99.99,,,-99.99,576.520020,,2013-07-06 20:00:00,
2013-07-06 17:00:00,83.0,62.0,-100.00,SW,225,4.0,-999.0,49,-99.99,,,-99.99,605.520020,,2013-07-06 21:00:00,
2013-07-06 18:00:00,83.0,62.0,-100.00,SSW,202,3.0,-999.0,50,-99.99,,,-99.99,381.640015,,2013-07-06 22:00:00,
2013-07-06 19:00:00,82.0,63.0,-100.00,SW,225,3.0,-999.0,53,-99.99,,,-99.99,258.679993,,2013-07-06 23:00:00,
2013-07-06 19:52:00,82.0,63.0,-100.00,SW,225,3.0,-999.0,53,-99.99,,,-99.99,258.679993,,2013-07-06 23:52:00,
2013-07-06 21:00:00,76.0,64.0,-100.00,West,270,3.0,-999.0,67,-99.99,,,-99.99,20.879999,,2013-07-07 01:00:00,
2013-07-06 22:00:00,72.0,64.0,-100.00,WNW,292,4.0,-999.0,76,-99.99,,,-99.99,1.160000,,2013-07-07 02:00:00,
2013-07-06 23:00:00,70.0,64.0,-100.00,WNW,292,1.0,-999.0,81,-99.99,,,-99.99,0.000000,,2013-07-07 03:00:00,